Time;durP1;ratioP1;P1;durP2;ratioP2;P2;SDS_P1;SDS_P2;PMS_P1;PMS_P2;Temp;Humidity;BMP_temperature;BMP_pressure;BME280_temperature;BME280_humidity;BME280_pressure;Samples;Min_cycle;Max_cycle;Signal;HPM_P1;HPM_P2
2021/04/10 00:01:53;;;;;;;10.13;6.62;;;;;;;2.98;63.83;99185.41;1781885;79;21236;-67
2021/04/10 00:04:20;;;;;;;9.33;7.20;;;;;;;2.91;63.85;99186.84;1785753;79;21187;-66
2021/04/10 00:06:47;;;;;;;16.40;8.50;;;;;;;2.68;64.02;99156.89;1786018;79;21159;-67
2021/04/10 00:09:14;;;;;;;9.78;7.03;;;;;;;2.84;64.13;99185.30;1783119;79;21232;-67
2021/04/10 00:11:41;;;;;;;12.55;7.22;;;;;;;2.86;64.33;99192.56;1789798;79;21625;-67
2021/04/10 00:14:12;;;;;;;10.23;6.97;;;;;;;2.87;64.38;99187.80;1777604;79;21084;-67
2021/04/10 00:16:39;;;;;;;9.68;6.80;;;;;;;2.90;64.45;99194.16;1788778;79;21262;-68
2021/04/10 00:19:07;;;;;;;10.95;6.67;;;;;;;2.95;64.56;99186.32;1786474;78;21144;-67
2021/04/10 00:21:34;;;;;;;10.98;6.42;;;;;;;3.01;64.63;99185.32;1779436;79;24299;-67
2021/04/10 00:24:01;;;;;;;10.15;6.55;;;;;;;3.06;64.74;99192.51;1778539;79;21517;-67
2021/04/10 00:26:28;;;;;;;10.28;6.33;;;;;;;3.04;64.77;99175.77;1777453;79;21056;-67
2021/04/10 00:28:55;;;;;;;12.23;6.67;;;;;;;3.04;64.77;99175.77;1782017;79;21167;-66
2021/04/10 00:31:22;;;;;;;11.48;6.08;;;;;;;3.18;64.83;99190.89;1782824;79;21166;-67
2021/04/10 00:33:49;;;;;;;9.55;6.20;;;;;;;3.19;64.89;99188.70;1799951;78;21223;-66
2021/04/10 00:36:16;;;;;;;11.50;6.45;;;;;;;3.20;64.89;99176.23;1798899;78;22360;-67
2021/04/10 00:38:43;;;;;;;13.22;6.85;;;;;;;3.16;64.88;99184.92;1795244;78;21214;-66
2021/04/10 00:41:13;;;;;;;13.72;7.67;;;;;;;3.16;64.96;99188.79;1799601;78;21183;-67
2021/04/10 00:43:40;;;;;;;15.75;7.72;;;;;;;3.13;64.95;99185.84;1799128;78;21191;-67
2021/04/10 00:46:07;;;;;;;25.95;14.65;;;;;;;3.07;64.95;99183.42;1798436;78;27088;-67
2021/04/10 00:48:35;;;;;;;29.95;13.30;;;;;;;2.97;65.01;99178.53;1797232;78;23045;-67
2021/04/10 00:51:03;;;;;;;20.35;10.40;;;;;;;2.86;65.02;99175.80;1795381;78;21078;-67
2021/04/10 00:53:33;;;;;;;13.35;8.60;;;;;;;2.74;65.13;99168.34;1801791;78;21626;-66
2021/04/10 00:56:05;;;;;;;15.75;7.95;;;;;;;2.63;65.14;99179.35;1800724;77;21894;-67
2021/04/10 00:58:33;;;;;;;19.20;7.37;;;;;;;2.52;65.19;99178.76;1795957;78;21282;-67
2021/04/10 01:01:03;;;;;;;10.20;6.28;;;;;;;2.45;65.39;99172.91;1796533;78;21361;-67
2021/04/10 01:03:30;;;;;;;11.30;6.30;;;;;;;2.39;65.52;99171.32;1798447;78;21199;-67
2021/04/10 01:05:58;;;;;;;11.65;5.97;;;;;;;2.34;65.57;99175.73;1801009;78;21634;-67
2021/04/10 01:08:27;;;;;;;12.43;6.53;;;;;;;2.27;65.67;99179.34;1799595;78;21597;-67
2021/04/10 01:10:59;;;;;;;8.98;5.08;;;;;;;2.20;65.75;99173.90;1797177;78;21582;-67
2021/04/10 01:13:40;;;;;;;8.45;5.40;;;;;;;2.13;65.86;99167.17;1800364;78;21430;-67
2021/04/10 01:16:15;;;;;;;11.70;6.20;;;;;;;2.05;65.90;99173.80;1798314;78;21200;-67
2021/04/10 01:18:59;;;;;;;12.20;5.42;;;;;;;1.96;65.97;99185.15;1748830;79;21149;-67
2021/04/10 01:21:42;;;;;;;13.85;5.78;;;;;;;1.90;66.08;99172.38;1773721;79;21234;-67
2021/04/10 01:25:00;;;;;;;11.57;6.08;;;;;;;1.85;66.17;99170.36;1772032;79;21299;-66
2021/04/10 01:27:40;;;;;;;10.90;6.37;;;;;;;1.82;66.21;99170.84;1774701;79;21562;-67
2021/04/10 01:30:17;;;;;;;14.80;7.95;;;;;;;1.79;66.36;99169.17;1767219;79;21157;-67
2021/04/10 01:32:58;;;;;;;14.13;7.80;;;;;;;1.76;66.45;99161.52;1777085;79;21210;-67
2021/04/10 01:35:30;;;;;;;13.90;7.87;;;;;;;1.74;66.46;99171.02;1778552;79;21212;-67
2021/04/10 01:38:01;;;;;;;14.65;8.58;;;;;;;1.73;66.57;99178.31;1769475;79;21113;-67
2021/04/10 01:40:32;;;;;;;17.45;8.45;;;;;;;1.68;66.56;99173.28;1767922;80;21260;-67
2021/04/10 01:43:00;;;;;;;15.55;8.93;;;;;;;1.65;66.65;99166.04;1771058;79;21211;-67
2021/04/10 01:45:28;;;;;;;15.40;7.92;;;;;;;1.56;66.58;99165.34;1769414;80;21191;-67
2021/04/10 01:48:01;;;;;;;10.43;6.67;;;;;;;1.50;66.71;99162.89;1765740;80;21240;-67
2021/04/10 01:50:28;;;;;;;10.13;6.08;;;;;;;1.46;66.81;99170.72;1768826;80;21586;-66
2021/04/10 01:52:58;;;;;;;13.53;5.10;;;;;;;1.40;66.89;99165.25;1765822;80;26315;-67
2021/04/10 01:55:26;;;;;;;14.55;5.62;;;;;;;1.40;67.02;99165.25;1761848;80;21252;-67
2021/04/10 01:57:54;;;;;;;9.38;5.03;;;;;;;1.41;67.13;99173.81;1766759;80;21186;-67
2021/04/10 02:00:23;;;;;;;;;;;;;;;1.37;67.07;99180.72;1766722;80;21210;-67
2021/04/10 02:02:52;;;;;;;9.75;5.45;;;;;;;1.29;67.14;99178.75;1770046;80;20238;-66
2021/04/10 02:05:19;;;;;;;12.25;6.00;;;;;;;1.23;67.11;99181.41;1735928;80;21290;-67
2021/04/10 02:07:49;;;;;;;14.53;7.70;;;;;;;1.14;67.16;99184.16;1766088;80;21172;-67
2021/04/10 02:10:24;;;;;;;9.73;5.37;;;;;;;1.05;67.31;99182.16;1764682;80;21151;-66
2021/04/10 02:12:54;;;;;;;10.63;5.62;;;;;;;0.98;67.37;99187.00;1762358;80;21213;-66
2021/04/10 02:15:22;;;;;;;11.38;6.08;;;;;;;0.93;67.44;99186.23;1760449;79;21154;-67
2021/04/10 02:17:50;;;;;;;9.83;5.33;;;;;;;0.88;67.51;99180.31;1762677;80;21188;-67
2021/04/10 02:20:18;;;;;;;10.05;5.25;;;;;;;0.86;67.66;99184.62;1760082;80;21675;-67
2021/04/10 02:22:51;;;;;;;8.75;5.33;;;;;;;0.84;67.69;99191.50;1761508;80;21545;-66
2021/04/10 02:25:21;;;;;;;11.48;5.70;;;;;;;0.84;67.79;99191.50;1739590;80;21151;-66
2021/04/10 02:27:48;;;;;;;14.68;5.42;;;;;;;0.85;67.84;99188.08;1769451;80;21125;-67
2021/04/10 02:30:17;;;;;;;13.80;6.17;;;;;;;0.88;67.98;99188.02;1756689;80;21666;-66
2021/04/10 02:32:57;;;;;;;9.30;5.80;;;;;;;0.90;68.03;99193.99;1732687;80;21195;-66
2021/04/10 02:35:43;;;;;;;9.68;5.40;;;;;;;0.91;68.08;99195.67;1762010;80;21661;-67
2021/04/10 02:38:13;;;;;;;10.28;5.58;;;;;;;0.94;68.17;99193.05;1771845;79;21168;-67
2021/04/10 02:40:44;;;;;;;11.80;5.60;;;;;;;0.95;68.21;99189.59;1770898;80;21936;-67
2021/04/10 02:43:16;;;;;;;12.90;5.72;;;;;;;0.96;68.28;99191.76;1768769;80;21248;-67
2021/04/10 02:45:45;;;;;;;12.20;6.97;;;;;;;0.95;68.34;99201.16;1766741;80;21159;-66
2021/04/10 02:48:29;;;;;;;14.03;6.90;;;;;;;0.99;68.47;99198.13;1763519;79;21030;-67
2021/04/10 02:50:58;;;;;;;16.07;7.28;;;;;;;1.02;68.54;99202.77;1772820;80;21701;-67
2021/04/10 02:53:26;;;;;;;16.57;6.00;;;;;;;1.04;68.55;99199.75;1764585;79;21127;-67
2021/04/10 02:55:59;;;;;;;17.45;6.15;;;;;;;1.02;68.55;99204.06;1765968;80;21440;-67
2021/04/10 02:58:30;;;;;;;15.10;6.45;;;;;;;1.02;68.62;99207.91;1762376;80;21199;-66
2021/04/10 03:00:58;;;;;;;14.43;6.17;;;;;;;1.01;68.64;99208.80;1758241;80;21172;-67
2021/04/10 03:03:28;;;;;;;16.30;7.47;;;;;;;0.98;68.69;99208.86;1769177;80;21187;-66
2021/04/10 03:05:56;;;;;;;12.58;6.50;;;;;;;0.97;68.76;99210.16;1764513;79;21152;-66
2021/04/10 03:08:24;;;;;;;12.37;6.25;;;;;;;0.95;68.83;99196.02;1766076;79;21673;-66
2021/04/10 03:10:54;;;;;;;12.40;5.42;;;;;;;0.94;68.90;99203.34;1768247;79;21149;-66
2021/04/10 03:13:23;;;;;;;14.30;6.25;;;;;;;0.95;69.00;99208.87;1765641;80;21243;-66
2021/04/10 03:15:53;;;;;;;14.35;6.40;;;;;;;0.95;68.96;99204.18;1764989;80;21035;-66
2021/04/10 03:18:22;;;;;;;14.58;6.10;;;;;;;0.95;69.07;99214.02;1761896;80;21182;-67
2021/04/10 03:20:50;;;;;;;14.13;5.83;;;;;;;0.96;69.16;99211.88;1739391;80;21316;-67
2021/04/10 03:23:17;;;;;;;12.75;5.55;;;;;;;0.98;69.22;99217.85;1762696;80;21201;-67
2021/04/10 03:25:44;;;;;;;17.55;6.60;;;;;;;0.98;69.22;99225.56;1764492;80;21295;-66
2021/04/10 03:28:13;;;;;;;10.93;4.72;;;;;;;1.02;69.36;99222.05;1765338;79;21666;-67
2021/04/10 03:30:41;;;;;;;9.83;4.72;;;;;;;1.00;69.40;99210.94;1767755;79;21146;-66
2021/04/10 03:33:09;;;;;;;11.12;4.80;;;;;;;1.21;69.55;99227.75;1760567;80;21208;-66
2021/04/10 03:35:36;;;;;;;10.30;4.67;;;;;;;1.30;69.57;99227.58;1765148;80;21565;-66
2021/04/10 03:38:04;;;;;;;14.00;4.97;;;;;;;1.37;69.53;99225.73;1767289;80;21709;-67
2021/04/10 03:40:31;;;;;;;10.50;4.50;;;;;;;1.45;69.61;99229.45;1774358;80;21283;-67
2021/04/10 03:42:58;;;;;;;9.40;3.92;;;;;;;1.52;69.60;99235.76;1770231;80;21149;-67
2021/04/10 03:45:25;;;;;;;12.73;3.60;;;;;;;1.60;69.73;99234.75;1765532;79;21713;-67
2021/04/10 03:47:55;;;;;;;13.98;4.87;;;;;;;1.66;69.73;99237.23;1766785;79;21230;-67
2021/04/10 03:50:23;;;;;;;8.73;3.20;;;;;;;1.75;69.78;99237.05;1762581;79;20998;-67
2021/04/10 03:52:52;;;;;;;12.47;3.15;;;;;;;1.82;69.79;99241.22;1767602;80;21214;-67
2021/04/10 03:55:20;;;;;;;6.95;2.98;;;;;;;1.89;69.92;99232.48;1759770;80;21185;-67
2021/04/10 03:57:47;;;;;;;7.78;3.20;;;;;;;2.06;70.06;99233.88;1762568;80;21205;-66
2021/04/10 04:00:15;;;;;;;8.55;2.83;;;;;;;2.06;70.06;99233.88;1765550;80;21246;-67
2021/04/10 04:02:42;;;;;;;7.25;2.92;;;;;;;2.16;70.00;99240.54;1762947;79;21080;-67
2021/04/10 04:05:11;;;;;;;9.85;2.90;;;;;;;2.24;69.99;99233.47;1764996;80;28872;-68
2021/04/10 04:07:38;;;;;;;7.72;2.95;;;;;;;2.32;70.02;99239.31;1763673;79;21123;-67
2021/04/10 04:10:07;;;;;;;11.45;3.17;;;;;;;2.39;70.00;99238.31;1761814;80;21378;-67
2021/04/10 04:12:35;;;;;;;5.62;2.52;;;;;;;2.43;69.99;99246.37;1760972;80;21195;-67
2021/04/10 04:15:05;;;;;;;9.50;2.62;;;;;;;2.48;70.09;99245.44;1759792;80;21201;-67
2021/04/10 04:17:33;;;;;;;7.22;2.60;;;;;;;2.54;70.13;99238.85;1766069;79;21622;-66
2021/04/10 04:20:01;;;;;;;11.25;2.67;;;;;;;2.57;70.15;99254.25;1770368;80;21196;-67
2021/04/10 04:22:28;;;;;;;8.63;2.70;;;;;;;2.58;70.21;99253.38;1768694;80;24424;-67
2021/04/10 04:24:55;;;;;;;8.83;2.35;;;;;;;2.58;70.25;99255.95;1759889;80;21151;-67
2021/04/10 04:27:22;;;;;;;10.93;2.35;;;;;;;2.58;70.35;99251.65;1769963;80;21710;-67
2021/04/10 04:29:49;;;;;;;9.88;2.47;;;;;;;2.61;70.45;99259.31;1765487;79;21209;-67
2021/04/10 04:32:16;;;;;;;8.65;2.72;;;;;;;2.63;70.39;99260.55;1765679;80;21157;-68
2021/04/10 04:34:43;;;;;;;11.48;2.67;;;;;;;2.65;70.46;99257.50;1773346;80;21234;-67
2021/04/10 04:37:10;;;;;;;14.18;2.92;;;;;;;2.70;70.54;99265.98;1765935;80;21643;-67
2021/04/10 04:39:38;;;;;;;7.85;3.00;;;;;;;2.72;70.56;99276.25;1767166;80;21586;-67
2021/04/10 04:42:06;;;;;;;10.13;2.87;;;;;;;2.75;70.52;99289.94;1780284;80;21188;-66
2021/04/10 04:44:33;;;;;;;;;;;;;;;2.77;70.64;99285.57;1745798;81;21142;-67
2021/04/10 04:47:00;;;;;;;8.05;2.75;;;;;;;2.81;70.74;99288.95;1753539;80;21157;-67
2021/04/10 04:49:27;;;;;;;9.80;2.55;;;;;;;2.84;70.74;99297.45;1781556;79;21219;-67
2021/04/10 04:51:55;;;;;;;6.85;3.10;;;;;;;2.83;70.69;99302.63;1759018;79;21635;-67
2021/04/10 04:54:22;;;;;;;9.88;2.70;;;;;;;2.79;70.67;99308.31;1761194;79;21164;-67
2021/04/10 04:57:11;;;;;;;10.70;3.02;;;;;;;2.78;70.85;99302.76;1744331;80;21251;-67
2021/04/10 04:59:38;;;;;;;6.03;2.47;;;;;;;2.79;70.94;99304.44;1743376;81;21233;-68
2021/04/10 05:02:05;;;;;;;8.25;2.80;;;;;;;2.83;71.00;99303.51;1746473;81;21227;-67
2021/04/10 05:04:32;;;;;;;8.78;2.65;;;;;;;2.89;71.12;99306.39;1745729;81;21075;-67
2021/04/10 05:06:59;;;;;;;8.78;2.62;;;;;;;2.94;71.12;99307.55;1743203;81;21195;-67
2021/04/10 05:09:28;;;;;;;14.00;2.92;;;;;;;2.97;71.07;99308.77;1749251;81;21189;-67
2021/04/10 05:11:55;;;;;;;9.85;2.67;;;;;;;3.02;71.14;99309.07;1743571;81;21140;-67
2021/04/10 05:14:22;;;;;;;11.50;2.87;;;;;;;3.08;71.20;99310.66;1742497;81;21204;-67
2021/04/10 05:16:49;;;;;;;8.98;2.98;;;;;;;3.15;71.21;99312.22;1745129;81;21235;-67
2021/04/10 05:19:17;;;;;;;9.00;3.20;;;;;;;3.22;71.25;99316.37;1750465;81;21580;-67
2021/04/10 05:21:44;;;;;;;6.00;2.58;;;;;;;3.30;71.29;99326.48;1731634;81;21211;-67
2021/04/10 05:24:11;;;;;;;12.33;3.20;;;;;;;3.34;71.25;99328.96;1742095;81;21213;-67
2021/04/10 05:26:38;;;;;;;9.55;2.92;;;;;;;3.35;71.23;99325.48;1738843;81;21503;-68
2021/04/10 05:29:05;;;;;;;9.23;3.02;;;;;;;3.39;71.30;99326.70;1742568;81;21180;-67
2021/04/10 05:31:32;;;;;;;9.95;2.58;;;;;;;3.40;71.30;99325.83;1738454;81;21179;-67
2021/04/10 05:33:59;;;;;;;12.90;2.58;;;;;;;3.41;71.37;99330.09;1750478;81;21230;-67
2021/04/10 05:36:26;;;;;;;8.95;2.77;;;;;;;3.49;71.47;99326.89;1748055;81;21272;-67
2021/04/10 05:38:53;;;;;;;10.75;2.70;;;;;;;3.56;71.44;99333.61;1750641;81;21009;-68
2021/04/10 05:41:20;;;;;;;8.05;2.60;;;;;;;3.64;71.42;99329.11;1744835;81;21006;-67
2021/04/10 05:43:47;;;;;;;11.12;2.35;;;;;;;3.72;71.50;99323.27;1742257;81;21557;-68
2021/04/10 05:46:14;;;;;;;11.45;2.50;;;;;;;3.85;71.53;99329.43;1749355;81;21559;-67
2021/04/10 05:48:41;;;;;;;10.53;2.62;;;;;;;3.97;71.71;99334.27;1738414;81;24874;-67
2021/04/10 05:51:08;;;;;;;9.20;2.30;;;;;;;4.09;71.57;99339.13;1741461;81;21099;-67
2021/04/10 05:53:35;;;;;;;8.95;2.50;;;;;;;4.20;71.57;99343.55;1738862;81;21138;-67
2021/04/10 05:56:02;;;;;;;8.05;2.27;;;;;;;4.32;71.46;99341.52;1754060;81;21551;-67
2021/04/10 05:58:29;;;;;;;14.80;3.67;;;;;;;4.42;71.42;99344.23;1740359;81;20977;-67
2021/04/10 06:00:56;;;;;;;8.30;2.17;;;;;;;4.58;71.65;99345.49;1710385;83;21280;-68
2021/04/10 06:03:23;;;;;;;8.88;3.15;;;;;;;4.79;71.49;99353.50;1734783;81;21931;-67
2021/04/10 06:05:50;;;;;;;10.50;2.98;;;;;;;4.96;71.52;99351.28;1707179;82;20998;-67
2021/04/10 06:08:17;;;;;;;9.98;2.98;;;;;;;5.19;71.54;99347.14;1708929;82;21122;-68
2021/04/10 06:10:44;;;;;;;7.80;2.37;;;;;;;5.32;71.39;99351.89;1703616;82;21002;-68
2021/04/10 06:13:11;;;;;;;11.20;3.02;;;;;;;5.57;71.46;99355.83;1710834;82;21566;-67
2021/04/10 06:15:38;;;;;;;10.15;3.05;;;;;;;5.91;71.49;99356.00;1735401;81;21591;-68
2021/04/10 06:18:06;;;;;;;8.75;2.75;;;;;;;6.27;71.26;99353.04;1733093;81;21567;-69
2021/04/10 06:20:33;;;;;;;6.50;2.67;;;;;;;6.49;71.06;99361.73;1745458;81;21560;-68
2021/04/10 06:23:00;;;;;;;9.43;3.12;;;;;;;6.63;70.62;99365.59;1744480;81;21562;-70
2021/04/10 06:25:27;;;;;;;12.07;2.87;;;;;;;6.59;70.14;99358.83;1752831;81;21205;-68
2021/04/10 06:27:54;;;;;;;;;;;;;;;6.83;70.72;99365.67;1746930;81;21083;-67
2021/04/10 06:30:22;;;;;;;9.60;2.72;;;;;;;7.13;70.25;99368.02;1745622;81;20157;-69
2021/04/10 06:32:49;;;;;;;13.03;3.92;;;;;;;7.26;70.51;99375.73;1741014;81;21102;-69
2021/04/10 06:35:16;;;;;;;9.10;3.08;;;;;;;7.43;70.50;99372.93;1740649;81;21135;-68
2021/04/10 06:37:43;;;;;;;6.55;2.67;;;;;;;7.58;69.99;99369.70;1744499;81;22336;-67
2021/04/10 06:40:11;;;;;;;9.08;3.05;;;;;;;7.33;69.16;99375.87;1742517;80;20965;-68
2021/04/10 06:42:38;;;;;;;5.25;2.42;;;;;;;7.19;69.68;99378.16;1713005;82;20985;-68
2021/04/10 06:45:07;;;;;;;7.80;2.42;;;;;;;7.20;69.55;99381.17;1740300;81;21689;-67
2021/04/10 06:47:34;;;;;;;7.47;2.30;;;;;;;7.17;69.83;99377.41;1737134;81;21546;-68
2021/04/10 06:50:05;;;;;;;8.40;2.70;;;;;;;7.12;69.81;99379.33;1737806;81;21270;-67
2021/04/10 06:52:38;;;;;;;7.47;2.25;;;;;;;7.30;70.33;99379.89;1711365;81;21142;-67
2021/04/10 06:55:12;;;;;;;7.20;2.58;;;;;;;7.58;70.04;99380.93;1736190;81;21050;-67
2021/04/10 06:57:53;;;;;;;10.53;2.72;;;;;;;7.72;70.03;99380.38;1732609;81;21075;-67
2021/04/10 07:00:21;;;;;;;13.08;3.08;;;;;;;7.86;68.93;99387.60;1716009;81;21553;-67
2021/04/10 07:02:49;;;;;;;6.72;2.47;;;;;;;7.64;68.24;99386.33;1716108;81;21208;-67
2021/04/10 07:05:17;;;;;;;15.32;3.17;;;;;;;7.20;68.20;99398.05;1717226;81;21045;-68
2021/04/10 07:07:44;;;;;;;;;;;;;;;7.03;68.89;99401.30;1712978;82;21567;-67
2021/04/10 07:10:12;;;;;;;;;;;;;;;6.89;68.05;99405.70;1682549;84;20181;-67
2021/04/10 07:12:39;;;;;;;8.95;2.83;;;;;;;6.86;69.26;99407.12;1700565;82;20924;-68
2021/04/10 07:15:08;;;;;;;;;;;;;;;7.09;69.62;99414.49;1714766;81;21430;-68
2021/04/10 07:17:35;;;;;;;11.33;2.58;;;;;;;7.23;69.18;99410.91;1718902;82;20192;-68
2021/04/10 07:20:27;;;;;;;11.55;2.40;;;;;;;7.40;69.29;99416.30;1692263;83;21026;-68
2021/04/10 07:23:10;;;;;;;7.85;2.70;;;;;;;7.57;68.78;99412.19;1691833;83;20976;-68
2021/04/10 07:25:41;;;;;;;16.35;3.12;;;;;;;7.76;69.14;99415.74;1707770;81;20970;-69
2021/04/10 07:28:30;;;;;;;11.03;2.98;;;;;;;8.02;69.13;99418.56;1718120;81;21305;-69
2021/04/10 07:31:07;;;;;;;12.20;3.12;;;;;;;8.25;68.53;99415.44;1711788;81;21243;-69
2021/04/10 07:33:43;;;;;;;8.33;2.62;;;;;;;8.20;68.34;99426.03;1710346;81;21230;-69
2021/04/10 07:39:00;;;;;;;14.07;2.92;;;;;;;8.03;67.92;99433.70;1788316;77;25166;-68
2021/04/10 07:41:28;;;;;;;10.75;3.35;;;;;;;8.08;68.32;99436.96;1761231;80;21104;-69
2021/04/10 07:43:55;;;;;;;8.68;2.90;;;;;;;8.24;68.21;99443.22;1765739;80;21197;-69
2021/04/10 07:46:26;;;;;;;7.60;2.27;;;;;;;8.27;67.33;99448.28;1765819;80;21061;-69
2021/04/10 07:49:13;;;;;;;10.40;3.08;;;;;;;8.13;67.44;99450.63;1739257;78;21227;-69
2021/04/10 07:51:59;;;;;;;15.00;2.55;;;;;;;7.97;67.58;99446.95;1766979;78;21163;-68
2021/04/10 07:54:41;;;;;;;9.20;2.67;;;;;;;7.97;67.61;99461.26;1742150;80;21591;-67
2021/04/10 07:57:12;;;;;;;9.68;2.98;;;;;;;8.01;67.44;99460.21;1764501;80;22204;-69
2021/04/10 07:59:53;;;;;;;9.88;2.90;;;;;;;7.97;67.29;99463.86;1773839;79;21021;-68
2021/04/10 08:02:23;;;;;;;10.82;3.25;;;;;;;7.95;67.35;99462.61;1773526;78;20994;-69
2021/04/10 08:05:08;;;;;;;7.22;2.20;;;;;;;8.07;67.65;99469.92;1772882;80;21184;-68
2021/04/10 08:07:35;;;;;;;8.85;2.85;;;;;;;8.17;66.92;99475.58;1771276;80;21160;-68
2021/04/10 08:10:07;;;;;;;12.00;3.17;;;;;;;8.11;67.27;99478.44;1768697;80;22369;-67
2021/04/10 08:15:11;;;;;;;9.33;2.72;;;;;;;8.06;66.04;99485.57;1696055;80;21120;-71
2021/04/10 08:17:41;;;;;;;10.43;3.67;;;;;;;7.96;66.44;99490.77;1695678;82;21155;-71
2021/04/10 08:20:22;;;;;;;7.00;2.75;;;;;;;7.92;66.47;99487.42;1679280;83;21244;-72
2021/04/10 08:22:51;;;;;;;10.28;3.08;;;;;;;7.93;66.76;99492.20;1692334;83;21216;-70
2021/04/10 08:25:33;;;;;;;13.88;2.77;;;;;;;8.19;67.23;99496.34;1688748;82;21088;-71
2021/04/10 08:28:01;;;;;;;6.97;2.85;;;;;;;8.49;67.07;99500.75;1697632;82;21163;-73
2021/04/10 08:30:28;;;;;;;;;;;;;;;8.65;66.46;99505.67;1703162;82;21150;-73
2021/04/10 08:32:54;;;;;;;16.75;3.65;;;;;;;8.80;66.34;99499.45;1702328;82;20260;-73
2021/04/10 08:35:22;;;;;;;6.87;2.87;;;;;;;8.95;66.52;99505.27;1701914;82;22235;-73
2021/04/10 08:37:59;;;;;;;14.10;4.00;;;;;;;9.04;65.81;99510.06;1700873;82;21182;-70
2021/04/10 08:40:27;;;;;;;11.10;3.12;;;;;;;9.15;66.10;99513.03;1707183;82;21025;-71
2021/04/10 08:42:58;;;;;;;11.40;2.98;;;;;;;9.09;65.00;99519.83;1703210;82;21166;-72
2021/04/10 08:45:32;;;;;;;13.62;3.00;;;;;;;8.67;64.36;99516.88;1700647;82;21057;-74
2021/04/10 08:48:04;;;;;;;11.40;3.30;;;;;;;8.68;65.25;99526.39;1683404;82;22400;-73
2021/04/10 08:50:35;;;;;;;13.85;3.10;;;;;;;8.74;65.42;99526.13;1694525;82;21230;-74
2021/04/10 08:53:11;;;;;;;11.00;3.92;;;;;;;9.00;65.86;99526.75;1694811;82;21164;-74
2021/04/10 08:55:40;;;;;;;13.22;4.20;;;;;;;9.19;61.35;99536.75;1697918;82;21406;-72
2021/04/10 08:58:30;;;;;;;13.15;3.80;;;;;;;9.01;63.89;99531.03;1702813;82;21146;-73
2021/04/10 09:01:10;;;;;;;9.43;3.58;;;;;;;9.08;64.72;99539.44;1702290;82;21203;-72
2021/04/10 09:03:51;;;;;;;9.75;2.85;;;;;;;9.09;64.51;99541.96;1698014;82;21250;-74
2021/04/10 09:06:42;;;;;;;9.03;2.72;;;;;;;8.81;63.97;99550.13;1697375;82;21135;-74
2021/04/10 09:09:20;;;;;;;9.48;2.37;;;;;;;8.52;64.14;99544.86;1705572;82;21251;-73
2021/04/10 09:11:50;;;;;;;10.58;2.27;;;;;;;8.19;63.96;99551.79;1703713;82;21157;-73
2021/04/10 09:14:43;;;;;;;9.98;2.40;;;;;;;8.04;64.41;99547.22;1680863;83;21251;-73
2021/04/10 09:17:11;;;;;;;11.30;4.75;;;;;;;7.95;64.28;99551.45;1702813;82;21247;-72
2021/04/10 09:19:38;;;;;;;17.85;4.90;;;;;;;7.90;63.94;99552.09;1699749;83;21196;-73
2021/04/10 09:22:05;;;;;;;12.05;2.77;;;;;;;7.85;64.45;99553.13;1682491;83;21611;-74
2021/04/10 09:24:44;;;;;;;;;;;;;;;7.97;63.78;99563.95;1688638;83;21165;-74
2021/04/10 09:27:27;;;;;;;7.97;2.35;;;;;;;7.97;64.10;99566.55;1689275;83;22165;-72
2021/04/10 09:29:59;;;;;;;12.18;3.20;;;;;;;8.01;64.01;99561.19;1681496;83;21192;-73
2021/04/10 09:32:44;;;;;;;6.35;2.77;;;;;;;7.94;62.74;99569.27;1685382;83;21666;-73
2021/04/10 09:35:15;;;;;;;9.88;2.65;;;;;;;7.85;63.79;99571.32;1686482;83;21131;-73
2021/04/10 09:37:49;;;;;;;11.55;2.17;;;;;;;8.01;63.94;99579.81;1682987;83;21170;-74
2021/04/10 09:40:21;;;;;;;13.93;2.55;;;;;;;8.07;63.70;99575.70;1686235;84;21160;-74
2021/04/10 09:43:04;;;;;;;12.35;2.15;;;;;;;8.17;63.62;99574.41;1685558;84;21683;-73
2021/04/10 09:45:34;;;;;;;13.43;2.60;;;;;;;8.37;63.89;99572.77;1679337;83;21139;-74
2021/04/10 09:48:11;;;;;;;16.07;2.80;;;;;;;8.57;63.87;99574.14;1679891;84;21235;-75
2021/04/10 09:50:54;;;;;;;10.88;3.05;;;;;;;8.80;63.85;99573.64;1682324;83;21128;-74
2021/04/10 09:53:24;;;;;;;9.68;2.92;;;;;;;9.01;63.68;99577.91;1684062;83;21400;-74
2021/04/10 09:56:10;;;;;;;5.40;2.15;;;;;;;8.89;60.32;99586.27;1683518;83;21755;-75
2021/04/10 09:58:43;;;;;;;11.83;2.90;;;;;;;8.29;60.95;99596.50;1681117;83;21225;-74
2021/04/10 10:01:21;;;;;;;6.83;2.45;;;;;;;7.70;61.40;99595.31;1682071;83;21189;-75
2021/04/10 10:03:50;;;;;;;10.10;2.45;;;;;;;7.34;61.49;99594.91;1660982;84;21203;-74
2021/04/10 10:09:29;;;;;;;4.75;1.55;;;;;;;7.16;62.01;99609.38;1824727;77;22362;-73
2021/04/10 10:11:58;;;;;;;7.03;2.23;;;;;;;6.89;61.42;99606.84;1799887;79;21606;-71
2021/04/10 10:14:25;;;;;;;11.45;2.65;;;;;;;6.81;61.93;99614.05;1792323;79;21223;-80
2021/04/10 10:16:53;;;;;;;8.20;2.55;;;;;;;6.82;62.43;99611.83;1801503;77;21052;-78
2021/04/10 10:19:22;;;;;;;12.00;2.50;;;;;;;6.81;61.82;99614.05;1797434;77;21247;-80
2021/04/10 10:21:49;;;;;;;8.03;2.35;;;;;;;6.83;62.40;99622.60;1791400;79;21726;-78
2021/04/10 10:24:21;;;;;;;14.63;2.15;;;;;;;7.03;62.51;99623.67;1795296;79;21067;-78
2021/04/10 10:26:48;;;;;;;9.85;2.70;;;;;;;7.24;62.59;99621.64;1793386;77;21864;-80
2021/04/10 10:29:17;;;;;;;8.93;2.80;;;;;;;7.63;62.91;99619.81;1789739;79;22107;-78
2021/04/10 10:31:52;;;;;;;17.32;3.05;;;;;;;8.04;62.83;99618.72;1794980;77;21053;-79
2021/04/10 10:34:22;;;;;;;29.85;3.70;;;;;;;8.48;62.77;99625.24;1796813;77;21632;-77
2021/04/10 10:36:51;;;;;;;16.25;2.90;;;;;;;8.78;62.36;99618.41;1793149;77;21151;-80
2021/04/10 10:39:38;;;;;;;10.98;2.80;;;;;;;8.97;62.12;99628.45;1797946;78;21183;-83
2021/04/10 10:42:07;;;;;;;14.33;3.87;;;;;;;9.19;62.11;99630.53;1794494;79;21064;-82
2021/04/10 10:44:36;;;;;;;21.55;2.95;;;;;;;9.45;62.09;99635.06;1804772;77;21068;-80
2021/04/10 10:47:08;;;;;;;52.60;4.75;;;;;;;9.57;61.78;99634.50;1805482;79;21135;-83
2021/04/10 10:49:35;;;;;;;9.70;2.65;;;;;;;9.58;61.52;99633.61;1797177;79;21593;-79
2021/04/10 10:52:03;;;;;;;9.55;1.90;;;;;;;9.56;61.54;99628.91;1800063;78;21194;-71
2021/04/10 10:54:36;;;;;;;11.55;3.42;;;;;;;9.57;61.15;99628.45;1804311;77;21203;-71
2021/04/10 10:57:18;;;;;;;18.90;2.95;;;;;;;9.53;61.10;99622.53;1795633;79;21074;-70
2021/04/10 10:59:45;;;;;;;9.35;2.10;;;;;;;9.50;60.81;99633.56;1735834;81;21146;-69
2021/04/10 11:02:19;;;;;;;8.45;2.42;;;;;;;9.68;61.47;99627.98;1709425;82;21211;-70
2021/04/10 11:04:47;;;;;;;8.25;2.50;;;;;;;10.02;61.65;99638.55;1738220;80;21383;-71
2021/04/10 11:07:15;;;;;;;10.38;1.87;;;;;;;10.30;61.35;99632.07;1738985;81;21260;-66
2021/04/10 11:09:43;;;;;;;6.00;1.90;;;;;;;10.40;60.04;99632.50;1726680;82;21029;-70
2021/04/10 11:12:15;;;;;;;30.88;3.65;;;;;;;10.36;60.52;99638.30;1738173;82;21187;-70
2021/04/10 11:14:43;;;;;;;7.65;1.95;;;;;;;10.56;60.75;99631.27;1735175;81;21184;-71
2021/04/10 11:17:12;;;;;;;5.67;1.92;;;;;;;10.78;60.55;99638.44;1736947;82;22134;-72
2021/04/10 11:19:45;;;;;;;6.42;1.85;;;;;;;11.04;60.29;99635.02;1734609;81;21077;-71
2021/04/10 11:22:17;;;;;;;5.40;1.87;;;;;;;11.05;60.18;99632.77;1724390;82;21065;-72
2021/04/10 11:24:49;;;;;;;6.15;1.92;;;;;;;10.80;59.17;99610.95;1727025;82;21617;-72
2021/04/10 11:27:23;;;;;;;8.70;2.12;;;;;;;10.80;59.17;99610.95;1735578;82;21714;-72
2021/04/10 11:29:59;;;;;;;9.73;1.90;;;;;;;10.70;59.74;99628.86;1739280;80;21192;-72
2021/04/10 11:32:37;;;;;;;7.83;1.70;;;;;;;10.78;58.89;99633.22;1735388;80;21165;-72
2021/04/10 11:35:08;;;;;;;5.45;2.30;;;;;;;10.41;58.38;99632.41;1734714;80;21072;-72
2021/04/10 11:37:38;;;;;;;4.55;1.90;;;;;;;10.04;55.41;99639.33;1729034;80;21250;-70
2021/04/10 11:40:19;;;;;;;6.72;2.25;;;;;;;9.44;56.97;99643.80;1714828;82;21025;-72
2021/04/10 11:42:53;;;;;;;6.30;1.95;;;;;;;9.05;53.22;99639.39;1728744;80;22175;-72
2021/04/10 11:45:30;;;;;;;6.25;1.90;;;;;;;8.81;56.89;99645.61;1735171;80;21057;-72
2021/04/10 11:48:20;;;;;;;8.08;2.33;;;;;;;9.03;57.02;99643.81;1722821;82;21024;-72
2021/04/10 11:50:56;;;;;;;6.35;2.08;;;;;;;9.06;56.77;99643.67;1743999;80;21597;-72
2021/04/10 11:53:36;;;;;;;10.03;2.67;;;;;;;9.09;57.47;99644.84;1735287;80;21183;-72
2021/04/10 11:56:30;;;;;;;11.22;2.85;;;;;;;9.35;58.18;99653.30;1727955;82;22167;-72
2021/04/10 11:59:11;;;;;;;7.10;1.82;;;;;;;9.68;58.28;99646.22;1735993;80;21040;-72
2021/04/10 12:01:50;;;;;;;8.25;2.15;;;;;;;9.90;57.98;99652.16;1711535;80;21176;-72
2021/04/10 12:04:28;;;;;;;9.88;1.70;;;;;;;10.04;57.48;99649.77;1731385;80;21131;-72
2021/04/10 12:07:08;;;;;;;6.10;1.57;;;;;;;10.07;57.71;99650.92;1729082;80;21077;-72